createdAt,value
2022-12-23T00:01:00.754Z,22.63
2022-12-23T00:03:31.138Z,18.97
2022-12-23T00:06:00.605Z,19.63
2022-12-23T00:08:30.408Z,15.57
2022-12-23T00:10:59.677Z,24.87
2022-12-23T00:13:45.689Z,20.63
2022-12-23T00:16:16.058Z,21.87
2022-12-23T00:18:45.440Z,28.07
2022-12-23T00:21:17.504Z,27.33
2022-12-23T00:23:50.387Z,22.03
2022-12-23T00:26:21.481Z,21.83
2022-12-23T00:28:50.619Z,25.20
2022-12-23T00:31:21.309Z,23.03
2022-12-23T00:33:58.847Z,27.40
2022-12-23T00:36:30.004Z,20.23
2022-12-23T00:39:18.882Z,27.53
2022-12-23T00:42:04.811Z,21.17
2022-12-23T00:44:33.629Z,27.70
2022-12-23T00:47:01.903Z,17.27
2022-12-23T00:49:44.494Z,18.27
2022-12-23T00:52:16.424Z,17.77
2022-12-23T00:54:46.415Z,13.20
2022-12-23T00:57:14.791Z,13.00
2022-12-23T00:59:43.521Z,13.43
2022-12-23T01:02:31.158Z,14.90
2022-12-23T01:05:17.766Z,10.60
2022-12-23T01:07:46.880Z,18.87
2022-12-23T01:10:16.554Z,15.50
2022-12-23T01:12:45.136Z,16.50
2022-12-23T01:15:13.342Z,19.90
2022-12-23T01:17:42.221Z,19.53
2022-12-23T01:20:12.376Z,17.30
2022-12-23T01:22:41.902Z,19.03
2022-12-23T01:25:11.427Z,12.53
2022-12-23T01:27:41.518Z,10.53
2022-12-23T01:30:11.462Z,13.43
2022-12-23T01:32:40.366Z,15.27
2022-12-23T01:35:09.677Z,14.10
2022-12-23T01:37:38.439Z,13.83
2022-12-23T01:40:09.480Z,11.27
2022-12-23T01:42:47.551Z,10.97
2022-12-23T01:45:22.508Z,14.00
2022-12-23T01:47:58.009Z,13.20
2022-12-23T01:50:32.646Z,15.73
2022-12-23T01:53:08.393Z,18.97
2022-12-23T01:55:46.349Z,9.67
2022-12-23T01:58:21.408Z,10.80
2022-12-23T02:01:10.938Z,10.60
2022-12-23T02:03:45.558Z,21.10
2022-12-23T02:06:40.957Z,8.43
2022-12-23T02:09:20.843Z,11.80
2022-12-23T02:12:30.555Z,12.53
2022-12-23T02:15:38.370Z,12.30
2022-12-23T02:18:33.861Z,11.97
2022-12-23T02:21:50.150Z,14.50
2022-12-23T02:24:56.996Z,12.67
2022-12-23T02:27:32.972Z,13.00
2022-12-23T02:30:35.773Z,8.80
2022-12-23T02:33:51.724Z,14.90
2022-12-23T02:36:33.287Z,10.37
2022-12-23T02:39:11.386Z,14.80
2022-12-23T02:41:51.355Z,11.30
2022-12-23T02:44:32.132Z,9.33
2022-12-23T02:47:09.715Z,9.37
2022-12-23T02:49:46.394Z,11.47
2022-12-23T02:52:20.273Z,7.20
2022-12-23T02:54:55.308Z,11.10
2022-12-23T02:57:31.770Z,9.60
2022-12-23T03:00:04.732Z,7.67
2022-12-23T03:02:35.674Z,9.83
2022-12-23T03:05:04.634Z,10.10
2022-12-23T03:07:41.734Z,11.03
2022-12-23T03:10:24.896Z,8.10
2022-12-23T03:13:09.813Z,8.80
2022-12-23T03:15:48.246Z,9.47
2022-12-23T03:18:34.383Z,7.17
2022-12-23T03:21:15.734Z,8.37
2022-12-23T03:23:55.419Z,6.53
2022-12-23T03:26:31.383Z,10.10
2022-12-23T03:29:06.887Z,9.10
2022-12-23T03:31:38.207Z,7.33
2022-12-23T03:34:15.790Z,7.23
2022-12-23T03:36:50.508Z,8.27
2022-12-23T03:39:29.818Z,10.83
2022-12-23T03:42:05.999Z,6.13
2022-12-23T03:44:40.131Z,6.77
2022-12-23T03:47:13.529Z,6.23
2022-12-23T03:49:51.431Z,7.97
2022-12-23T03:52:26.061Z,6.70
2022-12-23T03:54:57.959Z,8.73
2022-12-23T03:57:35.929Z,9.30
2022-12-23T04:00:06.661Z,12.70
2022-12-23T04:02:46.854Z,7.73
2022-12-23T04:05:24.614Z,8.40
2022-12-23T04:08:02.824Z,8.43
2022-12-23T04:10:32.755Z,7.53
2022-12-23T04:13:01.749Z,6.93
2022-12-23T04:15:30.993Z,7.70
2022-12-23T04:18:00.147Z,13.93
2022-12-23T04:20:30.011Z,6.47
2022-12-23T04:22:58.618Z,8.70
2022-12-23T04:25:27.104Z,5.17
2022-12-23T04:27:55.587Z,6.30
2022-12-23T04:30:26.708Z,6.37
2022-12-23T04:32:59.850Z,6.03
2022-12-23T04:35:30.683Z,4.93
2022-12-23T04:37:59.495Z,5.80
2022-12-23T04:40:27.710Z,5.67
2022-12-23T04:42:56.819Z,5.97
2022-12-23T04:45:25.396Z,4.67
2022-12-23T04:47:54.524Z,5.83
2022-12-23T04:50:23.379Z,5.57
2022-12-23T04:52:53.614Z,4.47
2022-12-23T04:55:22.389Z,7.20
2022-12-23T04:57:51.485Z,4.73
2022-12-23T05:00:21.330Z,5.07
2022-12-23T05:02:50.460Z,4.10
2022-12-23T05:05:18.850Z,4.90
2022-12-23T05:07:50.150Z,4.57
2022-12-23T05:10:20.378Z,5.57
2022-12-23T05:12:49.512Z,5.10
2022-12-23T05:15:18.613Z,4.50
2022-12-23T05:17:47.385Z,5.43
2022-12-23T05:20:16.332Z,3.47
2022-12-23T05:22:44.500Z,4.93
2022-12-23T05:25:13.227Z,3.83
2022-12-23T05:27:43.224Z,3.00
2022-12-23T05:30:12.892Z,3.23
2022-12-23T05:32:41.516Z,4.40
2022-12-23T05:35:11.354Z,3.03
2022-12-23T05:37:40.216Z,3.30
2022-12-23T05:40:10.805Z,3.67
2022-12-23T05:42:39.828Z,3.07
2022-12-23T05:45:11.299Z,3.97
2022-12-23T05:47:40.128Z,3.70
2022-12-23T05:50:10.868Z,3.43
2022-12-23T05:52:39.817Z,3.50
2022-12-23T05:55:10.381Z,3.10
2022-12-23T05:57:39.799Z,3.90
2022-12-23T06:00:12.957Z,4.57
2022-12-23T06:02:42.172Z,5.93
2022-12-23T06:05:11.857Z,3.70
2022-12-23T06:07:42.240Z,3.00
2022-12-23T06:10:12.737Z,3.97
2022-12-23T06:12:41.567Z,3.43
2022-12-23T06:15:12.738Z,2.10
2022-12-23T06:17:41.481Z,2.90
2022-12-23T06:20:19.972Z,3.47
2022-12-23T06:22:49.940Z,1.70
2022-12-23T06:25:18.801Z,2.30
2022-12-23T06:27:47.476Z,2.77
2022-12-23T06:30:17.676Z,3.27
2022-12-23T06:32:46.372Z,2.97
2022-12-23T06:35:14.590Z,3.83
2022-12-23T06:37:42.833Z,3.37
2022-12-23T06:40:13.491Z,2.97
2022-12-23T06:42:42.186Z,2.73
2022-12-23T06:45:11.924Z,3.57
2022-12-23T06:47:42.194Z,3.13
2022-12-23T06:50:11.402Z,4.03
2022-12-23T06:52:40.255Z,3.33
2022-12-23T06:55:09.349Z,3.10
2022-12-23T06:57:37.612Z,3.47
2022-12-23T07:00:07.212Z,4.10
2022-12-23T07:02:36.388Z,5.57
2022-12-23T07:05:07.265Z,4.57
2022-12-23T07:07:35.793Z,4.47
2022-12-23T07:10:04.722Z,5.20
2022-12-23T07:12:33.255Z,8.37
2022-12-23T07:15:01.625Z,4.80
2022-12-23T07:17:30.362Z,6.03
2022-12-23T07:19:59.717Z,6.33
2022-12-23T07:22:29.584Z,6.27
2022-12-23T07:24:58.087Z,6.30
2022-12-23T07:27:27.246Z,7.50
2022-12-23T07:29:55.441Z,7.93
2022-12-23T07:32:23.624Z,7.97
2022-12-23T07:34:52.177Z,7.90
2022-12-23T07:37:21.061Z,9.27
2022-12-23T07:39:50.835Z,8.47
2022-12-23T07:42:45.049Z,11.23
2022-12-23T07:45:09.579Z,8.03
2022-12-23T07:47:37.777Z,10.37
2022-12-23T07:50:07.955Z,9.97
2022-12-23T07:52:36.520Z,16.17
2022-12-23T07:55:07.931Z,8.90
2022-12-23T07:57:38.218Z,8.73
2022-12-23T08:00:12.189Z,9.53
2022-12-23T08:02:43.668Z,9.20
2022-12-23T08:05:13.325Z,11.53
2022-12-23T08:07:42.610Z,9.87
2022-12-23T08:10:13.289Z,10.20
2022-12-23T08:12:42.078Z,10.90
2022-12-23T08:15:11.883Z,9.73
2022-12-23T08:17:40.451Z,9.27
2022-12-23T08:20:10.710Z,10.10
2022-12-23T08:22:39.327Z,12.87
2022-12-23T08:25:08.688Z,10.37
2022-12-23T08:27:38.489Z,10.30
2022-12-23T08:30:08.828Z,13.23
2022-12-23T08:32:37.650Z,11.07
2022-12-23T08:35:07.176Z,8.93
2022-12-23T08:37:35.473Z,8.37
2022-12-23T08:40:04.492Z,7.27
2022-12-23T08:42:33.054Z,8.83
2022-12-23T08:45:03.354Z,8.13
2022-12-23T08:47:32.025Z,8.83
2022-12-23T08:50:00.769Z,8.13
2022-12-23T08:52:29.534Z,7.07
2022-12-23T08:54:57.743Z,7.73
2022-12-23T08:57:26.454Z,9.57
2022-12-23T08:59:55.394Z,8.07
2022-12-23T09:02:25.598Z,7.97
2022-12-23T09:04:54.234Z,7.80
2022-12-23T09:07:22.520Z,8.17
2022-12-23T09:09:51.037Z,9.30
2022-12-23T09:12:20.200Z,9.10
2022-12-23T09:14:49.320Z,8.33
2022-12-23T09:17:18.419Z,9.93
2022-12-23T09:19:52.706Z,10.37
2022-12-23T09:22:22.193Z,9.47
2022-12-23T09:24:50.859Z,10.87
2022-12-23T09:27:19.962Z,11.53
2022-12-23T09:29:48.777Z,10.33
2022-12-23T09:32:17.748Z,11.07
2022-12-23T09:34:48.074Z,9.10
2022-12-23T09:37:17.352Z,10.37
2022-12-23T09:39:45.951Z,9.63
2022-12-23T09:42:40.882Z,8.50
2022-12-23T09:45:20.970Z,9.60
2022-12-23T09:47:50.434Z,10.50
2022-12-23T09:50:27.753Z,8.13
2022-12-23T09:53:05.109Z,8.70
2022-12-23T09:55:47.185Z,8.03
2022-12-23T09:58:28.343Z,7.77
2022-12-23T10:01:16.957Z,10.30
2022-12-23T10:04:27.807Z,9.17
2022-12-23T10:07:14.776Z,7.20
2022-12-23T10:09:48.609Z,7.73
2022-12-23T10:12:28.806Z,8.53
2022-12-23T10:15:03.663Z,6.67
2022-12-23T10:17:39.466Z,7.43
2022-12-23T10:20:18.181Z,6.57
2022-12-23T10:22:48.165Z,8.23
2022-12-23T10:25:20.124Z,7.67
2022-12-23T10:27:48.755Z,6.63
2022-12-23T10:30:51.345Z,7.33
2022-12-23T10:33:18.200Z,7.57
2022-12-23T10:36:02.938Z,6.00
2022-12-23T10:38:53.302Z,6.70
2022-12-23T10:41:37.849Z,7.53
2022-12-23T10:44:45.718Z,6.33
2022-12-23T10:47:26.957Z,7.23
2022-12-23T10:50:13.268Z,5.73
2022-12-23T10:52:45.336Z,6.57
2022-12-23T10:55:28.515Z,6.13
2022-12-23T10:58:08.877Z,5.97
2022-12-23T11:00:42.788Z,6.63
2022-12-23T11:03:21.503Z,7.93
2022-12-23T11:05:55.095Z,9.17
2022-12-23T11:08:26.380Z,6.40
2022-12-23T11:10:57.195Z,6.40
2022-12-23T11:13:36.289Z,7.07
2022-12-23T11:16:30.321Z,7.27
2022-12-23T11:19:03.550Z,6.57
2022-12-23T11:21:34.320Z,5.27
2022-12-23T11:24:19.170Z,6.57
2022-12-23T11:27:01.180Z,9.23
2022-12-23T11:29:34.532Z,6.00
2022-12-23T11:32:06.487Z,6.03
2022-12-23T11:34:39.134Z,6.53
2022-12-23T11:37:08.402Z,7.05
2022-12-23T11:39:38.899Z,6.97
2022-12-23T11:42:18.256Z,7.73
2022-12-23T11:44:52.529Z,10.37
2022-12-23T11:47:31.323Z,7.87
2022-12-23T11:50:05.360Z,6.77
2022-12-23T11:52:35.318Z,6.63
2022-12-23T11:55:09.077Z,7.93
2022-12-23T11:57:47.223Z,7.13
2022-12-23T12:00:22.641Z,10.60
2022-12-23T12:02:55.861Z,8.50
2022-12-23T12:05:32.307Z,8.57
2022-12-23T12:08:04.618Z,8.90
2022-12-23T12:10:36.217Z,11.97
2022-12-23T12:13:22.885Z,16.33
2022-12-23T12:16:08.940Z,10.80
2022-12-23T12:18:39.591Z,15.45
2022-12-23T12:21:13.477Z,10.97
2022-12-23T12:23:50.750Z,9.53
2022-12-23T12:26:31.653Z,11.27
2022-12-23T12:29:15.517Z,11.10
2022-12-23T12:31:49.137Z,8.98
2022-12-23T12:34:31.665Z,10.93
2022-12-23T12:37:10.398Z,9.07
2022-12-23T12:39:44.689Z,10.43
2022-12-23T12:42:22.334Z,15.52
2022-12-23T12:45:03.183Z,10.60
2022-12-23T12:47:58.181Z,9.93
2022-12-23T12:50:34.175Z,8.80
2022-12-23T12:53:13.819Z,11.13
2022-12-23T12:55:51.482Z,11.35
2022-12-23T12:58:23.702Z,13.77
2022-12-23T13:01:16.731Z,9.88
2022-12-23T13:04:23.098Z,9.23
2022-12-23T13:07:09.925Z,11.17
2022-12-23T13:09:54.437Z,7.97
2022-12-23T13:12:36.547Z,10.40
2022-12-23T13:15:21.697Z,11.05
2022-12-23T13:18:14.461Z,10.02
2022-12-23T13:20:55.148Z,10.88
2022-12-23T13:23:48.106Z,11.35
2022-12-23T13:26:33.832Z,17.58
2022-12-23T13:29:36.275Z,15.50
2022-12-23T13:32:22.800Z,15.80
2022-12-23T13:35:04.834Z,14.32
2022-12-23T13:37:49.475Z,14.82
2022-12-23T13:40:38.388Z,22.27
2022-12-23T13:43:14.514Z,14.05
2022-12-23T13:45:45.069Z,17.48
2022-12-23T13:48:39.491Z,18.15
2022-12-23T13:51:17.688Z,19.00
2022-12-23T13:54:05.059Z,19.73
2022-12-23T13:56:44.526Z,12.88
2022-12-23T13:59:17.273Z,18.67
2022-12-23T14:01:49.909Z,13.48
2022-12-23T14:04:57.536Z,16.58
2022-12-23T14:07:31.976Z,12.55
2022-12-23T14:10:12.705Z,8.95
2022-12-23T14:12:44.052Z,12.03
2022-12-23T14:15:51.898Z,12.53
2022-12-23T14:18:42.980Z,14.00
2022-12-23T14:21:28.073Z,21.60
2022-12-23T14:24:25.834Z,19.38
2022-12-23T14:27:30.301Z,24.13
2022-12-23T14:30:11.436Z,36.65
2022-12-23T14:32:49.604Z,16.85
2022-12-23T14:35:27.682Z,13.77
2022-12-23T14:38:32.089Z,13.97
2022-12-23T14:41:23.865Z,16.33
2022-12-23T14:43:56.809Z,12.93
2022-12-23T14:46:54.288Z,8.35
2022-12-23T14:49:48.104Z,8.82
2022-12-23T14:52:50.079Z,9.45
2022-12-23T14:55:46.544Z,10.53
2022-12-23T14:59:00.648Z,17.05
2022-12-23T15:01:37.871Z,6.32
2022-12-23T15:04:19.472Z,4.22
2022-12-23T15:06:52.782Z,8.32
2022-12-23T15:09:27.848Z,5.27
2022-12-23T15:11:59.583Z,5.73
2022-12-23T15:14:37.149Z,5.77
2022-12-23T15:17:24.774Z,5.87
2022-12-23T15:19:53.948Z,4.40
2022-12-23T15:22:28.531Z,5.45
2022-12-23T15:25:00.498Z,4.77
2022-12-23T15:27:33.714Z,3.97
2022-12-23T15:30:03.788Z,4.50
2022-12-23T15:32:32.356Z,5.33
2022-12-23T15:35:06.755Z,3.43
2022-12-23T15:37:36.120Z,5.57
2022-12-23T15:40:13.444Z,5.33
2022-12-23T15:42:49.329Z,16.17
2022-12-23T15:45:34.899Z,6.43
2022-12-23T15:48:05.433Z,4.93
2022-12-23T15:50:41.875Z,3.53
2022-12-23T15:53:17.982Z,6.83
2022-12-23T15:55:50.415Z,5.30
2022-12-23T15:58:23.832Z,4.20
2022-12-23T16:00:59.035Z,4.60
2022-12-23T16:03:34.440Z,12.93
2022-12-23T16:06:22.114Z,14.93
2022-12-23T16:09:03.968Z,9.13
2022-12-23T16:11:52.845Z,10.93
2022-12-23T16:14:38.296Z,4.43
2022-12-23T16:17:25.181Z,4.97
2022-12-23T16:19:56.042Z,3.07
2022-12-23T16:22:29.964Z,3.07
2022-12-23T16:25:12.761Z,3.43
2022-12-23T16:27:44.708Z,3.77
2022-12-23T16:30:19.750Z,7.73
2022-12-23T16:32:55.703Z,7.20
2022-12-23T16:35:40.983Z,6.10
2022-12-23T16:38:19.611Z,5.50
2022-12-23T16:40:52.694Z,5.43
2022-12-23T16:43:23.096Z,5.40
2022-12-23T16:45:55.612Z,7.83
2022-12-23T16:48:33.161Z,9.07
2022-12-23T16:51:02.983Z,7.23
2022-12-23T16:53:31.697Z,6.67
2022-12-23T16:56:01.280Z,5.77
2022-12-23T16:58:30.037Z,5.63
2022-12-23T17:00:58.440Z,5.07
2022-12-23T17:03:28.848Z,7.20
2022-12-23T17:05:57.943Z,7.43
2022-12-23T17:08:26.609Z,5.07
2022-12-23T17:10:56.879Z,5.07
2022-12-23T17:13:25.460Z,3.50
2022-12-23T17:15:54.333Z,4.90
2022-12-23T17:18:22.924Z,5.17
2022-12-23T17:20:53.174Z,3.70
2022-12-23T17:23:29.497Z,4.50
2022-12-23T17:25:58.609Z,4.40
2022-12-23T17:28:33.577Z,5.93
2022-12-23T17:31:07.059Z,4.40
2022-12-23T17:33:39.395Z,5.10
2022-12-23T17:36:12.108Z,5.47
2022-12-23T17:38:40.871Z,6.53
2022-12-23T17:41:23.647Z,6.43
2022-12-23T17:43:53.162Z,3.78
2022-12-23T17:46:22.227Z,3.77
2022-12-23T17:48:51.897Z,2.97
2022-12-23T17:51:24.326Z,2.27
2022-12-23T17:53:58.249Z,4.97
2022-12-23T17:56:29.809Z,4.38
2022-12-23T17:58:59.037Z,3.40
2022-12-23T18:01:31.180Z,3.00
2022-12-23T18:04:01.577Z,16.50
2022-12-23T18:06:31.195Z,3.67
2022-12-23T18:08:59.493Z,3.47
2022-12-23T18:11:35.515Z,2.80
2022-12-23T18:14:05.061Z,2.95
2022-12-23T18:16:33.870Z,3.10
2022-12-23T18:19:02.655Z,3.25
2022-12-23T18:21:32.505Z,3.80
2022-12-23T18:24:02.369Z,3.03
2022-12-23T18:26:30.641Z,3.95
2022-12-23T18:29:00.578Z,2.90
2022-12-23T18:31:29.993Z,2.05
2022-12-23T18:33:59.937Z,2.13
2022-12-23T18:36:33.178Z,2.22
2022-12-23T18:39:01.877Z,3.13
2022-12-23T18:41:30.157Z,3.42
2022-12-23T18:43:59.990Z,2.53
2022-12-23T18:46:28.898Z,2.67
2022-12-23T18:48:58.829Z,3.28
2022-12-23T18:51:27.602Z,3.58
2022-12-23T18:53:57.647Z,5.47
2022-12-23T18:56:26.276Z,3.30
2022-12-23T18:58:55.384Z,4.97
2022-12-23T19:01:24.489Z,2.60
2022-12-23T19:03:53.327Z,3.23
2022-12-23T19:06:21.895Z,3.97
2022-12-23T19:08:51.197Z,3.17
2022-12-23T19:11:22.642Z,3.63
2022-12-23T19:13:52.094Z,3.78
2022-12-23T19:16:22.454Z,6.38
2022-12-23T19:18:52.437Z,2.50
2022-12-23T19:21:21.372Z,3.35
2022-12-23T19:23:49.958Z,6.80
2022-12-23T19:26:18.216Z,3.38
2022-12-23T19:28:48.739Z,4.73
2022-12-23T19:31:18.856Z,2.65
2022-12-23T19:33:49.540Z,3.90
2022-12-23T19:36:22.714Z,3.40
2022-12-23T19:38:52.260Z,2.20
2022-12-23T19:41:21.118Z,1.83
2022-12-23T19:43:52.338Z,1.10
2022-12-23T19:46:21.792Z,3.40
2022-12-23T19:48:54.341Z,2.72
2022-12-23T19:51:23.196Z,1.23
2022-12-23T19:53:53.386Z,1.90
2022-12-23T19:56:22.682Z,3.63
2022-12-23T19:58:53.797Z,2.17
2022-12-23T20:01:25.378Z,1.50
2022-12-23T20:03:56.735Z,2.90
2022-12-23T20:06:27.892Z,1.27
2022-12-23T20:09:03.345Z,3.23
2022-12-23T20:11:36.440Z,2.33
2022-12-23T20:14:07.568Z,1.80
2022-12-23T20:16:37.395Z,1.73
2022-12-23T20:19:06.699Z,1.60
2022-12-23T20:21:37.453Z,2.87
2022-12-23T20:24:06.973Z,1.43
2022-12-23T20:26:36.045Z,3.33
2022-12-23T20:29:06.886Z,2.90
2022-12-23T20:31:38.164Z,2.00
2022-12-23T20:34:09.496Z,1.60
2022-12-23T20:36:38.501Z,1.03
2022-12-23T20:39:07.238Z,2.43
2022-12-23T20:41:35.645Z,1.63
2022-12-23T20:46:54.222Z,1.77
2022-12-23T20:49:23.193Z,1.30
2022-12-23T20:51:52.374Z,1.77
2022-12-23T20:54:23.812Z,2.27
2022-12-23T20:56:56.612Z,2.40
2022-12-23T20:59:26.408Z,3.57
2022-12-23T21:01:55.350Z,2.07
2022-12-23T21:04:24.419Z,4.07
2022-12-23T21:06:53.068Z,3.43
2022-12-23T21:09:22.030Z,2.93
2022-12-23T21:11:50.941Z,4.50
2022-12-23T21:14:19.990Z,3.17
2022-12-23T21:16:50.076Z,3.83
2022-12-23T21:19:21.162Z,1.87
2022-12-23T21:21:50.817Z,4.00
2022-12-23T21:24:20.816Z,3.77
2022-12-23T21:26:56.555Z,1.60
2022-12-23T21:29:25.367Z,3.03
2022-12-23T21:31:56.035Z,2.93
2022-12-23T21:34:25.049Z,3.10
2022-12-23T21:36:54.301Z,4.70
2022-12-23T21:39:22.955Z,2.10
2022-12-23T21:41:52.854Z,1.60
2022-12-23T21:44:21.394Z,3.13
2022-12-23T21:46:52.927Z,2.13
2022-12-23T21:49:23.129Z,4.30
2022-12-23T21:51:52.624Z,3.70
2022-12-23T21:54:21.288Z,3.00
2022-12-23T21:56:49.926Z,3.80
2022-12-23T21:59:18.443Z,4.53
2022-12-23T22:01:47.225Z,3.37
2022-12-23T22:04:16.334Z,2.00
2022-12-23T22:06:47.092Z,3.37
2022-12-23T22:09:19.331Z,2.83
2022-12-23T22:11:49.247Z,1.90
2022-12-23T22:14:19.318Z,2.97
2022-12-23T22:16:48.059Z,1.77
2022-12-23T22:19:17.157Z,1.60
2022-12-23T22:21:47.313Z,2.27
2022-12-23T22:24:15.966Z,1.40
2022-12-23T22:26:45.416Z,4.97
2022-12-23T22:29:14.326Z,4.43
2022-12-23T22:31:46.893Z,1.80
2022-12-23T22:34:18.338Z,2.30
2022-12-23T22:36:48.911Z,3.40
2022-12-23T22:39:21.693Z,4.57
2022-12-23T22:41:54.164Z,4.63
2022-12-23T22:44:24.527Z,3.30
2022-12-23T22:46:53.163Z,2.77
2022-12-23T22:49:22.676Z,2.23
2022-12-23T22:51:53.058Z,5.67
2022-12-23T22:54:21.306Z,2.03
2022-12-23T22:56:50.546Z,2.80
2022-12-23T22:59:23.987Z,2.17
2022-12-23T23:01:54.332Z,4.03
2022-12-23T23:04:24.554Z,5.80
2022-12-23T23:06:54.577Z,2.60
2022-12-23T23:09:24.405Z,1.87
2022-12-23T23:11:53.548Z,2.40
2022-12-23T23:14:23.525Z,6.93
2022-12-23T23:17:00.725Z,4.00
2022-12-23T23:19:30.201Z,3.70
2022-12-23T23:21:59.856Z,4.97
2022-12-23T23:24:31.399Z,4.87
2022-12-23T23:27:00.577Z,3.23
2022-12-23T23:29:29.231Z,4.53
2022-12-23T23:31:58.618Z,3.07
2022-12-23T23:34:27.415Z,2.37
2022-12-23T23:36:56.616Z,1.60
2022-12-23T23:39:26.824Z,4.20
2022-12-23T23:41:55.302Z,4.47
2022-12-23T23:44:23.991Z,3.67
2022-12-23T23:46:54.887Z,3.50
2022-12-23T23:49:24.129Z,3.40
2022-12-23T23:51:53.039Z,3.30
2022-12-23T23:54:21.428Z,6.20
2022-12-23T23:56:53.068Z,3.30
2022-12-23T23:59:21.253Z,4.30
